sensor_id;sensor_type;location;lat;lon;timestamp;P1;durP1;ratioP1;P2;durP2;ratioP2
36241;SDS011;22283;42.748;12.732;2023-07-22T00:03:10;21.27;;;8.40;;
36241;SDS011;22283;42.748;12.732;2023-07-22T00:08:14;23.25;;;8.63;;
36241;SDS011;22283;42.748;12.732;2023-07-22T00:13:17;26.48;;;8.77;;
36241;SDS011;22283;42.748;12.732;2023-07-22T00:18:24;25.48;;;9.60;;
36241;SDS011;22283;42.748;12.732;2023-07-22T00:23:31;26.77;;;8.82;;
36241;SDS011;22283;42.748;12.732;2023-07-22T00:28:33;28.33;;;8.60;;
36241;SDS011;22283;42.748;12.732;2023-07-22T00:33:37;20.23;;;8.23;;
36241;SDS011;22283;42.748;12.732;2023-07-22T00:38:44;25.80;;;8.30;;
36241;SDS011;22283;42.748;12.732;2023-07-22T00:43:46;28.05;;;8.18;;
36241;SDS011;22283;42.748;12.732;2023-07-22T00:48:47;22.13;;;7.40;;
36241;SDS011;22283;42.748;12.732;2023-07-22T00:53:53;25.67;;;9.13;;
36241;SDS011;22283;42.748;12.732;2023-07-22T00:58:55;19.20;;;7.50;;
36241;SDS011;22283;42.748;12.732;2023-07-22T01:04:00;27.48;;;8.48;;
36241;SDS011;22283;42.748;12.732;2023-07-22T01:09:05;21.92;;;9.32;;
36241;SDS011;22283;42.748;12.732;2023-07-22T01:14:09;16.60;;;7.25;;
36241;SDS011;22283;42.748;12.732;2023-07-22T01:19:17;18.75;;;8.02;;
36241;SDS011;22283;42.748;12.732;2023-07-22T01:24:23;24.73;;;7.50;;
36241;SDS011;22283;42.748;12.732;2023-07-22T01:29:31;18.77;;;8.82;;
36241;SDS011;22283;42.748;12.732;2023-07-22T01:34:35;24.95;;;8.75;;
36241;SDS011;22283;42.748;12.732;2023-07-22T01:39:40;23.17;;;8.35;;
36241;SDS011;22283;42.748;12.732;2023-07-22T01:44:42;25.52;;;9.32;;
36241;SDS011;22283;42.748;12.732;2023-07-22T01:49:44;29.88;;;8.65;;
36241;SDS011;22283;42.748;12.732;2023-07-22T01:54:45;23.80;;;8.23;;
36241;SDS011;22283;42.748;12.732;2023-07-22T01:59:47;21.83;;;8.82;;
36241;SDS011;22283;42.748;12.732;2023-07-22T02:04:53;24.05;;;8.07;;
36241;SDS011;22283;42.748;12.732;2023-07-22T02:09:55;29.85;;;8.20;;
36241;SDS011;22283;42.748;12.732;2023-07-22T02:14:57;31.38;;;8.40;;
36241;SDS011;22283;42.748;12.732;2023-07-22T02:19:59;26.42;;;8.80;;
36241;SDS011;22283;42.748;12.732;2023-07-22T02:25:00;20.73;;;8.18;;
36241;SDS011;22283;42.748;12.732;2023-07-22T02:30:02;21.40;;;7.30;;
36241;SDS011;22283;42.748;12.732;2023-07-22T02:35:06;24.52;;;7.93;;
36241;SDS011;22283;42.748;12.732;2023-07-22T02:40:16;26.20;;;7.83;;
36241;SDS011;22283;42.748;12.732;2023-07-22T02:45:17;23.65;;;8.07;;
36241;SDS011;22283;42.748;12.732;2023-07-22T02:50:19;24.77;;;8.30;;
36241;SDS011;22283;42.748;12.732;2023-07-22T02:55:23;25.30;;;8.32;;
36241;SDS011;22283;42.748;12.732;2023-07-22T03:00:25;31.30;;;8.45;;
36241;SDS011;22283;42.748;12.732;2023-07-22T03:05:27;29.42;;;8.43;;
36241;SDS011;22283;42.748;12.732;2023-07-22T03:10:32;25.65;;;8.77;;
36241;SDS011;22283;42.748;12.732;2023-07-22T03:15:39;28.60;;;9.02;;
36241;SDS011;22283;42.748;12.732;2023-07-22T03:20:40;29.38;;;8.00;;
36241;SDS011;22283;42.748;12.732;2023-07-22T03:25:43;23.30;;;8.73;;
36241;SDS011;22283;42.748;12.732;2023-07-22T03:30:44;29.08;;;9.48;;
36241;SDS011;22283;42.748;12.732;2023-07-22T03:35:46;24.02;;;8.27;;
36241;SDS011;22283;42.748;12.732;2023-07-22T03:40:47;25.95;;;9.70;;
36241;SDS011;22283;42.748;12.732;2023-07-22T03:45:48;22.15;;;8.88;;
36241;SDS011;22283;42.748;12.732;2023-07-22T03:50:49;29.13;;;7.90;;
36241;SDS011;22283;42.748;12.732;2023-07-22T03:55:51;24.92;;;8.68;;
36241;SDS011;22283;42.748;12.732;2023-07-22T04:00:52;27.85;;;8.65;;
36241;SDS011;22283;42.748;12.732;2023-07-22T04:05:54;34.20;;;8.75;;
36241;SDS011;22283;42.748;12.732;2023-07-22T04:10:56;24.98;;;9.05;;
36241;SDS011;22283;42.748;12.732;2023-07-22T04:15:58;24.13;;;8.68;;
36241;SDS011;22283;42.748;12.732;2023-07-22T04:20:59;30.90;;;9.27;;
36241;SDS011;22283;42.748;12.732;2023-07-22T04:26:01;30.88;;;9.20;;
36241;SDS011;22283;42.748;12.732;2023-07-22T04:31:05;24.95;;;8.75;;
36241;SDS011;22283;42.748;12.732;2023-07-22T04:36:09;21.35;;;8.25;;
36241;SDS011;22283;42.748;12.732;2023-07-22T04:41:12;21.67;;;8.80;;
36241;SDS011;22283;42.748;12.732;2023-07-22T04:46:15;26.40;;;8.43;;
36241;SDS011;22283;42.748;12.732;2023-07-22T04:51:16;31.48;;;8.35;;
36241;SDS011;22283;42.748;12.732;2023-07-22T04:56:17;24.45;;;7.95;;
36241;SDS011;22283;42.748;12.732;2023-07-22T05:01:19;31.92;;;7.90;;
36241;SDS011;22283;42.748;12.732;2023-07-22T05:06:20;34.42;;;8.07;;
36241;SDS011;22283;42.748;12.732;2023-07-22T05:11:22;34.50;;;9.07;;
36241;SDS011;22283;42.748;12.732;2023-07-22T05:16:24;26.15;;;7.00;;
36241;SDS011;22283;42.748;12.732;2023-07-22T05:21:25;24.40;;;7.07;;
36241;SDS011;22283;42.748;12.732;2023-07-22T05:26:30;30.85;;;7.07;;
36241;SDS011;22283;42.748;12.732;2023-07-22T05:31:32;37.67;;;7.50;;
36241;SDS011;22283;42.748;12.732;2023-07-22T05:36:33;24.70;;;6.43;;
36241;SDS011;22283;42.748;12.732;2023-07-22T05:41:37;31.08;;;7.45;;
36241;SDS011;22283;42.748;12.732;2023-07-22T05:46:39;30.70;;;7.47;;
36241;SDS011;22283;42.748;12.732;2023-07-22T05:51:51;37.00;;;8.23;;
36241;SDS011;22283;42.748;12.732;2023-07-22T05:56:53;28.00;;;7.10;;
36241;SDS011;22283;42.748;12.732;2023-07-22T06:01:57;38.47;;;7.50;;
36241;SDS011;22283;42.748;12.732;2023-07-22T06:07:01;30.08;;;7.18;;
36241;SDS011;22283;42.748;12.732;2023-07-22T06:12:03;29.17;;;8.02;;
36241;SDS011;22283;42.748;12.732;2023-07-22T06:17:10;33.60;;;7.00;;
36241;SDS011;22283;42.748;12.732;2023-07-22T06:22:11;28.35;;;7.60;;
36241;SDS011;22283;42.748;12.732;2023-07-22T06:27:13;29.45;;;7.60;;
36241;SDS011;22283;42.748;12.732;2023-07-22T06:32:15;21.85;;;6.68;;
36241;SDS011;22283;42.748;12.732;2023-07-22T06:48:51;29.55;;;7.80;;
36241;SDS011;22283;42.748;12.732;2023-07-22T06:53:56;44.00;;;7.40;;
36241;SDS011;22283;42.748;12.732;2023-07-22T06:58:57;27.20;;;7.07;;
36241;SDS011;22283;42.748;12.732;2023-07-22T07:03:58;28.35;;;6.97;;
36241;SDS011;22283;42.748;12.732;2023-07-22T07:09:02;27.70;;;7.57;;
36241;SDS011;22283;42.748;12.732;2023-07-22T07:14:03;23.75;;;6.63;;
36241;SDS011;22283;42.748;12.732;2023-07-22T07:19:04;26.00;;;6.85;;
36241;SDS011;22283;42.748;12.732;2023-07-22T07:24:06;22.88;;;6.57;;
36241;SDS011;22283;42.748;12.732;2023-07-22T07:29:07;33.20;;;7.57;;
36241;SDS011;22283;42.748;12.732;2023-07-22T07:34:09;34.17;;;7.75;;
36241;SDS011;22283;42.748;12.732;2023-07-22T07:39:15;30.80;;;8.73;;
36241;SDS011;22283;42.748;12.732;2023-07-22T07:49:42;39.90;;;8.05;;
36241;SDS011;22283;42.748;12.732;2023-07-22T07:54:48;25.85;;;7.75;;
36241;SDS011;22283;42.748;12.732;2023-07-22T07:59:54;28.35;;;6.95;;
36241;SDS011;22283;42.748;12.732;2023-07-22T08:05:01;35.75;;;8.55;;
36241;SDS011;22283;42.748;12.732;2023-07-22T08:10:03;27.40;;;7.35;;
36241;SDS011;22283;42.748;12.732;2023-07-22T08:15:07;73.93;;;9.55;;
36241;SDS011;22283;42.748;12.732;2023-07-22T08:20:09;33.70;;;7.70;;
36241;SDS011;22283;42.748;12.732;2023-07-22T08:25:10;24.02;;;7.40;;
36241;SDS011;22283;42.748;12.732;2023-07-22T08:30:15;32.80;;;8.20;;
36241;SDS011;22283;42.748;12.732;2023-07-22T08:35:17;19.20;;;7.40;;
36241;SDS011;22283;42.748;12.732;2023-07-22T08:40:21;26.70;;;7.20;;
36241;SDS011;22283;42.748;12.732;2023-07-22T08:45:22;23.00;;;6.93;;
36241;SDS011;22283;42.748;12.732;2023-07-22T08:50:29;20.20;;;7.70;;
36241;SDS011;22283;42.748;12.732;2023-07-22T08:55:36;19.52;;;6.47;;
36241;SDS011;22283;42.748;12.732;2023-07-22T09:00:40;24.73;;;7.38;;
36241;SDS011;22283;42.748;12.732;2023-07-22T09:05:52;53.80;;;9.15;;
36241;SDS011;22283;42.748;12.732;2023-07-22T09:10:55;28.00;;;7.70;;
36241;SDS011;22283;42.748;12.732;2023-07-22T09:16:00;29.27;;;7.60;;
36241;SDS011;22283;42.748;12.732;2023-07-22T09:21:09;24.98;;;7.78;;
36241;SDS011;22283;42.748;12.732;2023-07-22T09:26:14;20.08;;;7.53;;
36241;SDS011;22283;42.748;12.732;2023-07-22T09:31:23;25.55;;;7.07;;
36241;SDS011;22283;42.748;12.732;2023-07-22T09:36:28;20.10;;;7.78;;
36241;SDS011;22283;42.748;12.732;2023-07-22T09:41:30;31.65;;;7.07;;
36241;SDS011;22283;42.748;12.732;2023-07-22T09:46:52;22.20;;;6.97;;
36241;SDS011;22283;42.748;12.732;2023-07-22T09:51:53;24.73;;;7.35;;
36241;SDS011;22283;42.748;12.732;2023-07-22T09:56:57;22.55;;;6.63;;
36241;SDS011;22283;42.748;12.732;2023-07-22T10:01:59;25.95;;;7.15;;
36241;SDS011;22283;42.748;12.732;2023-07-22T10:07:03;21.70;;;6.93;;
36241;SDS011;22283;42.748;12.732;2023-07-22T10:12:15;19.67;;;7.82;;
36241;SDS011;22283;42.748;12.732;2023-07-22T10:17:16;20.65;;;7.10;;
36241;SDS011;22283;42.748;12.732;2023-07-22T10:22:18;17.58;;;7.55;;
36241;SDS011;22283;42.748;12.732;2023-07-22T10:27:19;18.73;;;6.68;;
36241;SDS011;22283;42.748;12.732;2023-07-22T10:32:23;17.77;;;7.10;;
36241;SDS011;22283;42.748;12.732;2023-07-22T10:42:59;17.98;;;5.93;;
36241;SDS011;22283;42.748;12.732;2023-07-22T10:58:22;14.60;;;6.43;;
36241;SDS011;22283;42.748;12.732;2023-07-22T11:03:24;22.27;;;6.88;;
36241;SDS011;22283;42.748;12.732;2023-07-22T11:08:35;11.07;;;6.30;;
36241;SDS011;22283;42.748;12.732;2023-07-22T11:13:38;13.95;;;6.20;;
36241;SDS011;22283;42.748;12.732;2023-07-22T11:18:41;12.95;;;6.07;;
36241;SDS011;22283;42.748;12.732;2023-07-22T11:23:42;13.07;;;5.90;;
36241;SDS011;22283;42.748;12.732;2023-07-22T11:28:43;13.18;;;6.65;;
36241;SDS011;22283;42.748;12.732;2023-07-22T11:33:47;14.35;;;6.38;;
36241;SDS011;22283;42.748;12.732;2023-07-22T11:38:48;22.38;;;7.07;;
36241;SDS011;22283;42.748;12.732;2023-07-22T11:43:50;20.92;;;6.32;;
36241;SDS011;22283;42.748;12.732;2023-07-22T11:48:54;19.08;;;6.47;;
36241;SDS011;22283;42.748;12.732;2023-07-22T11:53:56;16.75;;;7.05;;
36241;SDS011;22283;42.748;12.732;2023-07-22T11:59:00;15.60;;;6.43;;
36241;SDS011;22283;42.748;12.732;2023-07-22T12:04:01;24.10;;;6.55;;
36241;SDS011;22283;42.748;12.732;2023-07-22T12:09:02;15.50;;;6.05;;
36241;SDS011;22283;42.748;12.732;2023-07-22T12:14:07;24.10;;;7.25;;
36241;SDS011;22283;42.748;12.732;2023-07-22T12:19:12;32.60;;;6.57;;
36241;SDS011;22283;42.748;12.732;2023-07-22T12:24:18;21.92;;;6.82;;
36241;SDS011;22283;42.748;12.732;2023-07-22T12:29:20;14.77;;;6.50;;
36241;SDS011;22283;42.748;12.732;2023-07-22T12:34:24;16.02;;;6.70;;
36241;SDS011;22283;42.748;12.732;2023-07-22T12:39:25;18.60;;;6.15;;
36241;SDS011;22283;42.748;12.732;2023-07-22T12:49:53;22.17;;;6.25;;
36241;SDS011;22283;42.748;12.732;2023-07-22T12:54:58;18.23;;;6.68;;
36241;SDS011;22283;42.748;12.732;2023-07-22T12:59:59;22.20;;;6.18;;
36241;SDS011;22283;42.748;12.732;2023-07-22T13:05:06;21.27;;;5.97;;
36241;SDS011;22283;42.748;12.732;2023-07-22T13:10:08;24.40;;;7.50;;
36241;SDS011;22283;42.748;12.732;2023-07-22T13:20:56;31.55;;;6.72;;
36241;SDS011;22283;42.748;12.732;2023-07-22T13:25:59;17.25;;;6.68;;
36241;SDS011;22283;42.748;12.732;2023-07-22T13:31:03;16.65;;;6.05;;
36241;SDS011;22283;42.748;12.732;2023-07-22T13:46:52;60.72;;;8.95;;
36241;SDS011;22283;42.748;12.732;2023-07-22T13:51:53;15.65;;;6.45;;
36241;SDS011;22283;42.748;12.732;2023-07-22T13:56:54;24.60;;;6.85;;
36241;SDS011;22283;42.748;12.732;2023-07-22T14:48:05;15.55;;;6.28;;
36241;SDS011;22283;42.748;12.732;2023-07-22T14:58:32;13.63;;;5.75;;
36241;SDS011;22283;42.748;12.732;2023-07-22T15:08:57;22.42;;;6.07;;
36241;SDS011;22283;42.748;12.732;2023-07-22T15:40:58;17.60;;;6.13;;
36241;SDS011;22283;42.748;12.732;2023-07-22T15:51:38;13.95;;;5.70;;
36241;SDS011;22283;42.748;12.732;2023-07-22T16:18:15;21.95;;;7.25;;
36241;SDS011;22283;42.748;12.732;2023-07-22T16:28:43;14.55;;;6.28;;
36241;SDS011;22283;42.748;12.732;2023-07-22T16:33:44;23.45;;;7.30;;
36241;SDS011;22283;42.748;12.732;2023-07-22T16:38:45;16.10;;;5.57;;
36241;SDS011;22283;42.748;12.732;2023-07-22T16:43:50;18.30;;;6.47;;
36241;SDS011;22283;42.748;12.732;2023-07-22T16:48:54;18.50;;;6.43;;
36241;SDS011;22283;42.748;12.732;2023-07-22T16:54:00;21.20;;;6.63;;
36241;SDS011;22283;42.748;12.732;2023-07-22T16:59:04;21.33;;;6.10;;
36241;SDS011;22283;42.748;12.732;2023-07-22T17:04:05;15.43;;;5.45;;
36241;SDS011;22283;42.748;12.732;2023-07-22T17:09:08;21.27;;;6.07;;
36241;SDS011;22283;42.748;12.732;2023-07-22T17:14:13;12.68;;;5.22;;
36241;SDS011;22283;42.748;12.732;2023-07-22T17:19:14;14.75;;;5.63;;
36241;SDS011;22283;42.748;12.732;2023-07-22T17:24:15;15.57;;;5.85;;
36241;SDS011;22283;42.748;12.732;2023-07-22T17:29:16;24.52;;;5.90;;
36241;SDS011;22283;42.748;12.732;2023-07-22T17:34:18;19.15;;;6.95;;
36241;SDS011;22283;42.748;12.732;2023-07-22T17:39:19;15.68;;;5.55;;
36241;SDS011;22283;42.748;12.732;2023-07-22T17:44:20;21.75;;;6.43;;
36241;SDS011;22283;42.748;12.732;2023-07-22T17:49:23;27.77;;;6.35;;
36241;SDS011;22283;42.748;12.732;2023-07-22T17:54:24;26.08;;;6.13;;
36241;SDS011;22283;42.748;12.732;2023-07-22T17:59:25;17.55;;;5.97;;
36241;SDS011;22283;42.748;12.732;2023-07-22T18:04:26;13.93;;;5.70;;
36241;SDS011;22283;42.748;12.732;2023-07-22T18:09:28;18.38;;;5.90;;
36241;SDS011;22283;42.748;12.732;2023-07-22T18:14:29;19.63;;;6.78;;
36241;SDS011;22283;42.748;12.732;2023-07-22T18:19:31;16.10;;;5.93;;
36241;SDS011;22283;42.748;12.732;2023-07-22T18:24:35;23.63;;;7.22;;
36241;SDS011;22283;42.748;12.732;2023-07-22T18:29:39;14.43;;;5.45;;
36241;SDS011;22283;42.748;12.732;2023-07-22T18:34:40;27.52;;;6.65;;
36241;SDS011;22283;42.748;12.732;2023-07-22T18:39:43;21.48;;;6.05;;
36241;SDS011;22283;42.748;12.732;2023-07-22T18:44:45;23.85;;;6.70;;
36241;SDS011;22283;42.748;12.732;2023-07-22T18:49:49;14.93;;;6.65;;
36241;SDS011;22283;42.748;12.732;2023-07-22T18:54:50;22.35;;;7.60;;
36241;SDS011;22283;42.748;12.732;2023-07-22T18:59:51;18.38;;;6.70;;
36241;SDS011;22283;42.748;12.732;2023-07-22T19:04:53;18.15;;;6.47;;
36241;SDS011;22283;42.748;12.732;2023-07-22T19:09:55;11.00;;;5.50;;
36241;SDS011;22283;42.748;12.732;2023-07-22T19:14:56;20.38;;;5.97;;
36241;SDS011;22283;42.748;12.732;2023-07-22T19:19:57;20.02;;;6.03;;
36241;SDS011;22283;42.748;12.732;2023-07-22T19:24:58;17.92;;;6.68;;
36241;SDS011;22283;42.748;12.732;2023-07-22T19:30:00;18.35;;;6.65;;
36241;SDS011;22283;42.748;12.732;2023-07-22T19:35:01;20.77;;;6.20;;
36241;SDS011;22283;42.748;12.732;2023-07-22T19:40:03;17.70;;;5.88;;
36241;SDS011;22283;42.748;12.732;2023-07-22T19:45:04;16.88;;;5.80;;
36241;SDS011;22283;42.748;12.732;2023-07-22T19:50:06;27.65;;;8.00;;
36241;SDS011;22283;42.748;12.732;2023-07-22T19:55:08;19.95;;;6.47;;
36241;SDS011;22283;42.748;12.732;2023-07-22T20:00:09;19.13;;;7.30;;
36241;SDS011;22283;42.748;12.732;2023-07-22T20:05:14;16.35;;;6.68;;
36241;SDS011;22283;42.748;12.732;2023-07-22T20:10:15;20.88;;;6.80;;
36241;SDS011;22283;42.748;12.732;2023-07-22T20:15:16;21.35;;;7.20;;
36241;SDS011;22283;42.748;12.732;2023-07-22T20:20:17;15.80;;;6.13;;
36241;SDS011;22283;42.748;12.732;2023-07-22T20:25:19;18.95;;;6.03;;
36241;SDS011;22283;42.748;12.732;2023-07-22T20:30:20;21.10;;;6.65;;
36241;SDS011;22283;42.748;12.732;2023-07-22T20:35:22;21.13;;;6.63;;
36241;SDS011;22283;42.748;12.732;2023-07-22T20:40:23;22.70;;;7.40;;
36241;SDS011;22283;42.748;12.732;2023-07-22T20:45:24;20.08;;;6.90;;
36241;SDS011;22283;42.748;12.732;2023-07-22T20:50:26;17.60;;;7.20;;
36241;SDS011;22283;42.748;12.732;2023-07-22T20:55:27;17.73;;;6.82;;
36241;SDS011;22283;42.748;12.732;2023-07-22T21:00:28;20.77;;;7.57;;
36241;SDS011;22283;42.748;12.732;2023-07-22T21:05:29;15.98;;;6.45;;
36241;SDS011;22283;42.748;12.732;2023-07-22T21:10:30;16.38;;;6.40;;
36241;SDS011;22283;42.748;12.732;2023-07-22T21:15:31;22.23;;;8.02;;
36241;SDS011;22283;42.748;12.732;2023-07-22T21:20:32;28.40;;;7.15;;
36241;SDS011;22283;42.748;12.732;2023-07-22T21:25:33;20.48;;;7.13;;
36241;SDS011;22283;42.748;12.732;2023-07-22T21:30:34;13.82;;;6.70;;
36241;SDS011;22283;42.748;12.732;2023-07-22T21:35:35;22.17;;;6.90;;
36241;SDS011;22283;42.748;12.732;2023-07-22T21:40:36;28.88;;;7.85;;
36241;SDS011;22283;42.748;12.732;2023-07-22T21:45:37;25.00;;;8.55;;
36241;SDS011;22283;42.748;12.732;2023-07-22T21:50:39;19.45;;;7.80;;
36241;SDS011;22283;42.748;12.732;2023-07-22T21:55:40;25.23;;;8.85;;
36241;SDS011;22283;42.748;12.732;2023-07-22T22:00:41;21.85;;;8.07;;
36241;SDS011;22283;42.748;12.732;2023-07-22T22:05:42;21.17;;;8.82;;
36241;SDS011;22283;42.748;12.732;2023-07-22T22:10:44;22.08;;;8.45;;
36241;SDS011;22283;42.748;12.732;2023-07-22T22:15:47;22.98;;;9.13;;
36241;SDS011;22283;42.748;12.732;2023-07-22T22:20:47;28.42;;;9.27;;
36241;SDS011;22283;42.748;12.732;2023-07-22T22:25:48;23.48;;;9.48;;
36241;SDS011;22283;42.748;12.732;2023-07-22T22:30:49;19.77;;;8.88;;
36241;SDS011;22283;42.748;12.732;2023-07-22T22:35:50;21.83;;;7.88;;
36241;SDS011;22283;42.748;12.732;2023-07-22T22:40:50;24.20;;;8.20;;
36241;SDS011;22283;42.748;12.732;2023-07-22T22:45:51;21.38;;;8.48;;
36241;SDS011;22283;42.748;12.732;2023-07-22T22:50:52;21.45;;;8.50;;
36241;SDS011;22283;42.748;12.732;2023-07-22T22:55:53;19.63;;;8.43;;
36241;SDS011;22283;42.748;12.732;2023-07-22T23:00:56;23.45;;;7.85;;
36241;SDS011;22283;42.748;12.732;2023-07-22T23:05:57;31.30;;;8.25;;
36241;SDS011;22283;42.748;12.732;2023-07-22T23:10:58;25.98;;;8.50;;
36241;SDS011;22283;42.748;12.732;2023-07-22T23:15:59;18.33;;;7.97;;
36241;SDS011;22283;42.748;12.732;2023-07-22T23:21:00;21.52;;;8.50;;
36241;SDS011;22283;42.748;12.732;2023-07-22T23:26:01;23.15;;;8.15;;
36241;SDS011;22283;42.748;12.732;2023-07-22T23:31:01;22.63;;;9.13;;
36241;SDS011;22283;42.748;12.732;2023-07-22T23:36:03;23.73;;;8.75;;
36241;SDS011;22283;42.748;12.732;2023-07-22T23:41:06;22.23;;;8.20;;
36241;SDS011;22283;42.748;12.732;2023-07-22T23:46:07;21.08;;;8.30;;
36241;SDS011;22283;42.748;12.732;2023-07-22T23:51:08;20.05;;;7.97;;
36241;SDS011;22283;42.748;12.732;2023-07-22T23:56:09;19.00;;;9.07;;
